Time;durP1;ratioP1;P1;durP2;ratioP2;P2;SDS_P1;SDS_P2;PMS_P1;PMS_P2;Temp;Humidity;BMP_temperature;BMP_pressure;BME280_temperature;BME280_humidity;BME280_pressure;Samples;Min_cycle;Max_cycle;Signal;HPM_P1;HPM_P2
2023/04/03 00:01:21;;;;;;;3.65;2.25;;;;;;;17.02;49.14;100102.31;5091600;28;20378;-69
2023/04/03 00:03:51;;;;;;;3.60;2.10;;;;;;;17.00;49.17;100100.78;5091611;28;20070;-69
2023/04/03 00:06:19;;;;;;;3.10;2.05;;;;;;;16.99;49.10;100102.59;5091484;28;20059;-69
2023/04/03 00:08:49;;;;;;;3.67;2.30;;;;;;;16.99;49.06;100099.06;5091474;28;20048;-69
2023/04/03 00:11:19;;;;;;;3.67;2.28;;;;;;;16.98;49.06;100106.25;5091698;28;20042;-69
2023/04/03 00:13:48;;;;;;;3.03;1.88;;;;;;;16.96;49.09;100102.84;5092220;28;20068;-69
2023/04/03 00:16:16;;;;;;;3.08;2.00;;;;;;;16.95;48.98;100101.16;5092687;28;20131;-68
2023/04/03 00:18:44;;;;;;;3.75;2.30;;;;;;;16.94;49.06;100107.53;5092797;28;20072;-69
2023/04/03 00:21:14;;;;;;;2.80;2.00;;;;;;;16.93;48.83;100099.59;5091613;28;20044;-69
2023/04/03 00:23:42;;;;;;;3.33;2.30;;;;;;;16.92;49.03;100101.44;5093289;28;20123;-69
2023/04/03 00:26:15;;;;;;;3.33;2.20;;;;;;;16.90;48.85;100108.81;5094212;28;20052;-68
2023/04/03 00:28:44;;;;;;;3.47;2.10;;;;;;;16.89;48.94;100109.81;5095158;28;20127;-68
2023/04/03 00:31:15;;;;;;;3.88;2.28;;;;;;;16.86;48.65;100101.97;5095537;28;20054;-71
2023/04/03 00:33:43;;;;;;;3.67;2.20;;;;;;;16.86;48.94;100107.38;5099255;28;20538;-71
2023/04/03 00:36:13;;;;;;;4.13;2.60;;;;;;;16.86;48.72;100107.38;5098685;28;20081;-70
2023/04/03 00:38:41;;;;;;;2.97;2.10;;;;;;;16.83;48.82;100107.66;5096762;28;20047;-68
2023/04/03 00:41:09;;;;;;;3.85;2.40;;;;;;;16.82;48.84;100111.34;5096936;28;20127;-69
2023/04/03 00:43:39;;;;;;;3.85;2.55;;;;;;;16.81;48.74;100109.63;5097491;28;20048;-69
2023/04/03 00:46:07;;;;;;;3.53;2.10;;;;;;;16.81;48.81;100112.31;5098644;28;20047;-68
2023/04/03 00:48:39;;;;;;;3.58;2.20;;;;;;;16.81;48.75;100115.00;5095737;28;20481;-68
2023/04/03 00:51:09;;;;;;;3.75;2.20;;;;;;;16.79;48.67;100116.97;5099512;28;20055;-71
2023/04/03 00:53:42;;;;;;;3.95;2.20;;;;;;;16.79;48.69;100127.75;5099459;28;20040;-68
2023/04/03 00:56:13;;;;;;;4.40;2.40;;;;;;;16.76;48.78;100117.25;5100345;28;20064;-68
2023/04/03 00:58:48;;;;;;;3.70;2.30;;;;;;;16.74;48.76;100121.91;5101275;28;20040;-68
2023/04/03 01:01:21;;;;;;;3.30;2.10;;;;;;;16.72;48.72;100122.06;5101222;28;20056;-69
2023/04/03 01:03:49;;;;;;;3.60;2.20;;;;;;;16.73;48.64;100117.53;5100642;28;20098;-68
2023/04/03 01:06:22;;;;;;;3.08;1.90;;;;;;;16.71;48.69;100125.75;5098609;28;20044;-68
2023/04/03 01:08:51;;;;;;;3.72;2.33;;;;;;;16.72;48.68;100129.28;5097975;28;20047;-69
2023/04/03 01:11:22;;;;;;;3.00;2.00;;;;;;;16.70;48.58;100137.50;5097018;28;20048;-68
2023/04/03 01:13:52;;;;;;;3.35;2.17;;;;;;;16.70;48.64;100123.19;5098602;28;20063;-68
2023/04/03 01:16:20;;;;;;;3.72;2.20;;;;;;;16.66;48.58;100127.09;5097292;28;20044;-69
2023/04/03 01:18:48;;;;;;;3.20;2.10;;;;;;;16.66;48.54;100121.69;5095415;28;20149;-68
2023/04/03 01:21:48;;;;;;;3.20;2.22;;;;;;;16.67;48.61;100118.88;5094636;28;20048;-69
2023/04/03 01:24:34;;;;;;;3.80;2.15;;;;;;;16.65;48.47;100120.00;5094092;28;20128;-68
2023/04/03 01:27:04;;;;;;;3.10;2.22;;;;;;;16.63;48.37;100119.28;5093961;28;20046;-68
2023/04/03 01:29:34;;;;;;;4.25;2.45;;;;;;;16.63;48.51;100119.28;5093911;28;20109;-68
2023/04/03 01:32:05;;;;;;;3.08;2.20;;;;;;;16.60;48.44;100117.72;5093767;28;20086;-68
2023/04/03 01:34:33;;;;;;;3.65;2.33;;;;;;;16.58;48.69;100120.53;5093834;28;20040;-68
2023/04/03 01:37:01;;;;;;;3.85;2.20;;;;;;;16.59;48.33;100121.38;5093786;28;20043;-68
2023/04/03 01:39:30;;;;;;;3.47;2.30;;;;;;;16.57;48.45;100126.91;5094032;28;20044;-68
2023/04/03 01:41:59;;;;;;;3.30;1.92;;;;;;;16.55;48.55;100126.19;5093477;28;20040;-68
2023/04/03 01:44:27;;;;;;;2.92;2.08;;;;;;;16.54;48.35;100129.03;5093619;28;20047;-68
2023/04/03 01:46:55;;;;;;;2.88;2.05;;;;;;;16.54;48.33;100126.31;5093370;28;20378;-68
2023/04/03 01:49:24;;;;;;;3.35;1.85;;;;;;;16.52;48.50;100133.69;5093490;28;20040;-69
2023/04/03 01:51:53;;;;;;;4.00;2.30;;;;;;;16.52;48.44;100125.63;5093295;28;20044;-68
2023/04/03 01:54:21;;;;;;;3.53;2.05;;;;;;;16.51;48.37;100129.28;5093350;28;20052;-69
2023/04/03 01:56:49;;;;;;;3.08;2.00;;;;;;;16.48;48.25;100134.91;5093589;28;20135;-68
2023/04/03 01:59:19;;;;;;;3.70;2.20;;;;;;;16.48;48.31;100138.47;5093195;28;20044;-68
2023/04/03 02:01:47;;;;;;;3.15;2.10;;;;;;;16.46;48.37;100145.81;5100106;28;20060;-68
2023/04/03 02:04:16;;;;;;;3.25;1.95;;;;;;;16.45;48.25;100138.75;5096289;28;20097;-68
2023/04/03 02:06:45;;;;;;;3.03;2.00;;;;;;;16.45;48.21;100152.19;5093236;28;20067;-68
2023/04/03 02:09:13;;;;;;;2.88;1.90;;;;;;;16.43;48.26;100143.41;5093032;28;20128;-67
2023/04/03 02:11:41;;;;;;;2.67;1.80;;;;;;;16.41;48.37;100145.38;5102377;28;20427;-67
2023/04/03 02:14:10;;;;;;;2.80;1.90;;;;;;;16.41;48.05;100145.38;5113361;28;20071;-69
2023/04/03 02:16:38;;;;;;;3.35;2.20;;;;;;;16.40;48.03;100149.03;5113609;28;20047;-69
2023/04/03 02:19:07;;;;;;;3.17;2.00;;;;;;;16.39;47.99;100147.34;5113947;28;20122;-68
2023/04/03 02:21:35;;;;;;;3.50;2.10;;;;;;;16.37;48.09;100138.53;5108017;28;20101;-68
2023/04/03 02:24:05;;;;;;;2.95;1.80;;;;;;;16.35;48.01;100145.91;5092914;28;20052;-68
2023/04/03 02:26:34;;;;;;;3.35;2.10;;;;;;;16.35;48.10;100145.06;5092681;28;20068;-68
2023/04/03 02:29:02;;;;;;;2.88;2.05;;;;;;;16.34;48.03;100141.50;5092635;28;20166;-69
2023/04/03 02:31:31;;;;;;;3.25;2.10;;;;;;;16.32;47.94;100146.19;5092808;28;20071;-68
2023/04/03 02:33:59;;;;;;;3.00;2.00;;;;;;;16.30;48.13;100148.13;5092631;28;20044;-68
2023/04/03 02:36:27;;;;;;;3.35;2.00;;;;;;;16.30;47.85;100142.75;5092582;28;20051;-68
2023/04/03 02:38:56;;;;;;;2.80;2.00;;;;;;;16.29;47.93;100143.72;5092437;28;20089;-68
2023/04/03 02:41:33;;;;;;;3.03;1.80;;;;;;;16.27;47.82;100148.41;5100682;28;20373;-68
2023/04/03 02:44:01;;;;;;;3.72;2.00;;;;;;;16.26;47.79;100138.63;5112799;28;20044;-68
2023/04/03 02:46:30;;;;;;;2.53;1.73;;;;;;;16.24;47.94;100151.34;5112928;28;20051;-68
2023/04/03 02:48:58;;;;;;;4.10;2.00;;;;;;;16.21;47.90;100147.09;5112665;28;20104;-68
2023/04/03 02:51:26;;;;;;;3.30;2.10;;;;;;;16.22;47.79;100148.81;5112682;28;20119;-68
2023/04/03 02:53:54;;;;;;;2.63;1.83;;;;;;;16.20;48.06;100147.19;5112445;28;20048;-68
2023/04/03 02:56:22;;;;;;;3.25;1.83;;;;;;;16.15;47.79;100144.91;5112189;28;20047;-68
2023/04/03 02:58:52;;;;;;;3.13;2.08;;;;;;;16.18;47.78;100151.88;5112651;28;20536;-68
2023/04/03 03:01:21;;;;;;;3.13;1.90;;;;;;;16.16;47.84;100154.69;5112464;28;20047;-68
2023/04/03 03:03:49;;;;;;;3.05;1.92;;;;;;;16.14;47.73;100142.38;5112514;28;20459;-68
2023/04/03 03:06:17;;;;;;;2.85;1.80;;;;;;;16.13;47.77;100149.59;5112187;28;20047;-67
2023/04/03 03:08:46;;;;;;;3.45;1.77;;;;;;;16.12;47.62;100150.56;5112418;28;20465;-68
2023/04/03 03:11:14;;;;;;;3.50;1.95;;;;;;;16.11;47.76;100153.38;5112186;28;20073;-68
2023/04/03 03:13:42;;;;;;;3.35;1.77;;;;;;;16.10;47.81;100157.03;5112263;28;20051;-68
2023/04/03 03:16:12;;;;;;;3.38;2.00;;;;;;;16.08;47.55;100153.63;5112259;28;20441;-68
2023/04/03 03:18:40;;;;;;;3.63;1.77;;;;;;;16.07;47.60;100158.16;5112185;28;20073;-67
2023/04/03 03:21:13;;;;;;;3.90;1.90;;;;;;;16.06;47.68;100158.28;5112064;28;20047;-68
2023/04/03 03:23:41;;;;;;;3.47;1.80;;;;;;;16.05;47.70;100151.22;5112090;28;20047;-68
2023/04/03 03:26:11;;;;;;;3.00;1.88;;;;;;;16.00;47.58;100151.59;5109584;28;20058;-67
2023/04/03 03:28:40;;;;;;;2.78;1.80;;;;;;;16.02;47.72;100161.25;5091572;28;20056;-67
2023/04/03 03:31:10;;;;;;;3.08;1.83;;;;;;;16.01;47.55;100159.53;5091828;28;20400;-68
2023/04/03 03:33:39;;;;;;;3.22;1.98;;;;;;;16.00;47.62;100155.13;5091545;28;20055;-67
2023/04/03 03:36:08;;;;;;;3.33;1.80;;;;;;;15.99;47.49;100155.25;5091688;28;20458;-67
2023/04/03 03:38:36;;;;;;;2.97;1.80;;;;;;;15.97;47.57;100162.63;5091838;28;20048;-67
2023/04/03 03:41:05;;;;;;;3.17;1.90;;;;;;;15.94;47.57;100157.50;5091725;28;20541;-67
2023/04/03 03:43:33;;;;;;;3.22;1.90;;;;;;;15.94;47.52;100158.34;5091746;28;20067;-68
2023/04/03 03:46:01;;;;;;;3.42;1.95;;;;;;;15.94;47.62;100158.34;5091564;28;20040;-68
2023/04/03 03:48:30;;;;;;;2.78;1.80;;;;;;;15.93;47.53;100162.03;5091626;28;20044;-68
2023/04/03 03:51:01;;;;;;;3.40;2.08;;;;;;;15.92;47.49;100163.00;5091773;28;20127;-68
2023/04/03 03:53:29;;;;;;;3.08;1.80;;;;;;;15.91;47.31;100163.97;5091664;28;20385;-68
2023/04/03 03:55:57;;;;;;;2.90;1.88;;;;;;;15.89;47.42;100171.31;5091554;28;20397;-68
2023/04/03 03:58:25;;;;;;;3.20;1.80;;;;;;;15.87;47.63;100162.53;5091597;28;20036;-69
2023/04/03 04:00:54;;;;;;;2.90;1.88;;;;;;;15.87;47.46;100169.75;5091388;28;20108;-68
2023/04/03 04:03:22;;;;;;;2.83;1.80;;;;;;;15.86;47.47;100166.19;5091376;28;20052;-68
2023/04/03 04:05:50;;;;;;;2.78;1.88;;;;;;;15.86;47.42;100160.81;5091438;28;20044;-68
2023/04/03 04:08:19;;;;;;;2.85;1.80;;;;;;;15.85;47.48;100161.81;5094611;28;20123;-68
2023/04/03 04:10:47;;;;;;;2.60;1.73;;;;;;;15.84;47.47;100161.94;5095319;28;20061;-68
2023/04/03 04:13:15;;;;;;;2.75;1.90;;;;;;;15.84;47.48;100159.25;5095032;28;20477;-68
2023/04/03 04:15:44;;;;;;;2.60;1.73;;;;;;;15.81;47.35;100162.19;5095335;28;20072;-68
2023/04/03 04:18:15;;;;;;;3.08;1.80;;;;;;;15.81;47.41;100168.41;5095213;28;20044;-68
2023/04/03 04:20:45;;;;;;;2.63;1.73;;;;;;;15.81;47.44;100162.19;5095175;28;20101;-67
2023/04/03 04:23:13;;;;;;;3.30;1.95;;;;;;;15.79;47.56;100172.22;5095205;28;20048;-68
2023/04/03 04:25:45;;;;;;;2.67;1.67;;;;;;;15.78;47.44;100179.44;5095024;28;20048;-68
2023/04/03 04:28:17;;;;;;;3.70;2.20;;;;;;;15.78;47.52;100173.19;5094913;28;20441;-68
2023/04/03 04:30:46;;;;;;;2.70;1.73;;;;;;;15.75;47.47;100179.69;5095081;28;20119;-69
2023/04/03 04:33:14;;;;;;;3.38;2.00;;;;;;;15.76;47.66;100180.53;5094887;28;20036;-68
2023/04/03 04:35:43;;;;;;;3.40;2.00;;;;;;;15.74;47.47;100180.69;5111585;28;20510;-68
2023/04/03 04:38:11;;;;;;;2.92;2.00;;;;;;;15.74;47.62;100184.22;5115327;28;20089;-68
2023/04/03 04:40:40;;;;;;;2.70;1.70;;;;;;;15.72;47.58;100179.94;5115073;28;20552;-69
2023/04/03 04:43:10;;;;;;;3.63;1.98;;;;;;;15.72;47.48;100177.25;5115151;28;20059;-68
2023/04/03 04:45:38;;;;;;;2.70;1.77;;;;;;;15.70;47.62;100198.03;5115048;28;20093;-68
2023/04/03 04:48:07;;;;;;;3.42;1.95;;;;;;;15.69;47.55;100191.81;5114965;28;20407;-69
2023/04/03 04:50:35;;;;;;;2.80;1.80;;;;;;;15.70;47.40;100192.66;5114910;28;20039;-68
2023/04/03 04:53:04;;;;;;;2.80;1.80;;;;;;;15.68;47.35;100194.63;5114529;28;20050;-68
2023/04/03 04:55:32;;;;;;;2.90;1.90;;;;;;;15.66;47.49;100196.59;5114655;28;20048;-68
2023/04/03 04:58:00;;;;;;;3.22;1.98;;;;;;;15.67;47.44;100200.97;5114517;28;20142;-68
2023/04/03 05:00:29;;;;;;;3.30;2.00;;;;;;;15.66;47.37;100196.59;5114535;28;20043;-69
2023/04/03 05:02:57;;;;;;;3.03;1.80;;;;;;;15.65;47.51;100198.44;5114607;28;20050;-69
2023/04/03 05:05:26;;;;;;;3.75;1.85;;;;;;;15.65;47.45;100200.25;5114554;28;20127;-68
2023/04/03 05:07:54;;;;;;;2.90;1.80;;;;;;;15.61;47.40;100198.78;5114450;28;20074;-67
2023/04/03 05:10:22;;;;;;;3.50;2.10;;;;;;;15.63;47.55;100203.06;5114344;28;20122;-68
2023/04/03 05:12:50;;;;;;;2.92;1.80;;;;;;;15.64;47.35;100203.94;5114297;28;20040;-68
2023/04/03 05:15:18;;;;;;;3.60;2.10;;;;;;;15.63;47.36;100199.50;5114406;28;20048;-68
2023/04/03 05:17:48;;;;;;;2.80;1.80;;;;;;;15.62;47.54;100211.25;5113836;28;20051;-68
2023/04/03 05:20:16;;;;;;;2.60;1.77;;;;;;;15.61;47.40;100214.91;5114669;28;20050;-68
2023/04/03 05:22:44;;;;;;;3.95;1.73;;;;;;;15.58;47.31;100216.00;5114099;28;20404;-69
2023/04/03 05:25:12;;;;;;;2.67;1.70;;;;;;;15.59;47.22;100227.59;5114166;28;20043;-68
2023/04/03 05:27:40;;;;;;;3.08;1.92;;;;;;;15.59;47.21;100217.69;5113927;28;20104;-68
2023/04/03 05:30:11;;;;;;;2.92;1.75;;;;;;;15.58;47.18;100221.38;5110040;28;20055;-68
2023/04/03 05:32:39;;;;;;;2.97;1.80;;;;;;;15.57;47.30;100211.59;5093392;28;20047;-68
2023/04/03 05:35:10;;;;;;;3.45;2.10;;;;;;;15.57;47.11;100206.22;5100727;28;20130;-69
2023/04/03 05:37:38;;;;;;;3.83;1.90;;;;;;;15.56;47.51;100203.66;5112093;28;20054;-69
2023/04/03 05:40:08;;;;;;;3.03;2.00;;;;;;;15.55;47.33;100215.41;5112256;28;20341;-69
2023/04/03 05:42:37;;;;;;;3.85;1.88;;;;;;;15.54;47.37;100208.28;5111913;28;20044;-69
2023/04/03 05:45:06;;;;;;;3.15;1.90;;;;;;;15.55;47.33;100210.03;5111976;28;20047;-69
2023/04/03 05:47:34;;;;;;;2.97;1.70;;;;;;;15.54;47.44;100213.66;5112951;28;20122;-69
2023/04/03 05:50:02;;;;;;;3.28;2.08;;;;;;;15.53;47.45;100211.97;5113103;28;20067;-68
2023/04/03 05:52:36;;;;;;;3.72;2.05;;;;;;;15.52;47.33;100210.25;5113307;28;20047;-69
2023/04/03 05:55:04;;;;;;;;;;;;;;;15.54;47.42;100219.03;5113639;28;20057;-68
2023/04/03 05:57:32;;;;;;;3.13;1.75;;;;;;;15.54;47.36;100221.72;5113330;28;19920;-68
2023/04/03 06:00:00;;;;;;;2.88;1.73;;;;;;;15.53;47.44;100217.34;5113043;28;20091;-69
2023/04/03 06:02:29;;;;;;;2.90;1.90;;;;;;;15.52;47.47;100226.38;5113429;28;20408;-68
2023/04/03 06:04:57;;;;;;;3.38;2.10;;;;;;;15.52;47.54;100216.47;5113170;28;20071;-68
2023/04/03 06:07:28;;;;;;;2.45;1.55;;;;;;;15.51;47.51;100222.00;5113121;28;20056;-68
2023/04/03 06:09:58;;;;;;;2.53;1.77;;;;;;;15.50;47.40;100217.59;5113342;28;20054;-68
2023/04/03 06:12:28;;;;;;;3.45;2.10;;;;;;;15.49;47.36;100222.13;5112969;28;20092;-68
2023/04/03 06:14:57;;;;;;;3.30;1.83;;;;;;;15.51;47.38;100224.69;5113234;28;20047;-68
2023/04/03 06:17:25;;;;;;;2.97;1.77;;;;;;;15.49;47.47;100226.63;5112935;28;20465;-69
2023/04/03 06:19:53;;;;;;;2.97;1.80;;;;;;;15.49;47.52;100221.25;5112931;28;20048;-68
2023/04/03 06:22:21;;;;;;;2.45;1.52;;;;;;;15.48;47.57;100223.09;5112898;28;20126;-68
2023/04/03 06:24:52;;;;;;;2.35;1.60;;;;;;;15.50;47.40;100233.72;5112849;28;20044;-68
2023/04/03 06:27:21;;;;;;;2.50;1.63;;;;;;;15.50;47.26;100231.03;5112685;28;20043;-68
2023/04/03 06:29:50;;;;;;;4.20;1.95;;;;;;;15.49;47.42;100229.31;5112009;28;20491;-68
2023/04/03 06:32:18;;;;;;;3.75;1.80;;;;;;;15.50;47.48;100231.03;5112841;28;20469;-68
2023/04/03 06:34:46;;;;;;;2.95;1.80;;;;;;;15.50;47.55;100239.09;5112568;28;20071;-68
2023/04/03 06:37:17;;;;;;;3.58;1.95;;;;;;;15.49;47.42;100232.00;5112549;28;20542;-68
2023/04/03 06:39:46;;;;;;;3.67;2.00;;;;;;;15.50;47.46;100241.78;5112649;28;20411;-68
2023/04/03 06:42:15;;;;;;;4.30;1.98;;;;;;;15.48;47.20;100235.69;5112571;28;20048;-68
2023/04/03 06:44:44;;;;;;;3.40;1.95;;;;;;;15.50;47.38;100244.47;5112473;28;20116;-68
2023/04/03 06:47:13;;;;;;;3.20;1.90;;;;;;;15.48;47.36;100233.00;5112299;28;20040;-70
2023/04/03 06:49:42;;;;;;;4.15;1.98;;;;;;;15.50;47.25;100244.47;5112341;28;20126;-69
2023/04/03 06:52:11;;;;;;;3.38;1.77;;;;;;;15.49;47.48;100246.31;5112048;28;20400;-68
2023/04/03 06:54:40;;;;;;;3.88;1.80;;;;;;;15.49;47.35;100249.00;5112279;28;20067;-71
2023/04/03 06:57:09;;;;;;;3.35;1.90;;;;;;;15.49;47.28;100242.75;5112509;28;20126;-69
2023/04/03 06:59:37;;;;;;;3.13;1.95;;;;;;;15.49;47.34;100251.69;5112199;28;20050;-70
2023/04/03 07:02:07;;;;;;;3.58;1.98;;;;;;;15.51;47.35;100259.63;5112169;28;20057;-69
2023/04/03 07:04:36;;;;;;;3.05;1.90;;;;;;;15.51;47.03;100265.00;5112277;28;20066;-70
2023/04/03 07:07:04;;;;;;;3.03;1.90;;;;;;;15.51;47.02;100267.69;5112378;28;20047;-70
2023/04/03 07:09:32;;;;;;;2.95;2.03;;;;;;;15.51;46.92;100263.16;5112375;28;20446;-70
2023/04/03 07:12:00;;;;;;;3.38;1.90;;;;;;;15.51;46.83;100276.59;5112156;28;20047;-70
2023/04/03 07:14:29;;;;;;;2.70;1.83;;;;;;;15.51;47.18;100278.44;5111860;28;20043;-69
2023/04/03 07:16:57;;;;;;;2.80;1.80;;;;;;;15.50;46.84;100271.34;5112091;28;20101;-71
2023/04/03 07:19:27;;;;;;;2.72;1.58;;;;;;;15.51;47.17;100273.91;5111904;28;20047;-70
2023/04/03 07:21:56;;;;;;;4.10;1.95;;;;;;;15.51;47.14;100275.75;5111947;28;20047;-70
2023/04/03 07:24:24;;;;;;;3.13;2.00;;;;;;;15.51;47.27;100273.06;5111869;28;20052;-69
2023/04/03 07:26:53;;;;;;;2.95;1.60;;;;;;;15.53;46.92;100273.78;5112156;28;20043;-70
2023/04/03 07:29:22;;;;;;;2.75;1.80;;;;;;;15.51;47.14;100273.91;5111792;28;20052;-70
2023/04/03 07:31:50;;;;;;;2.08;1.52;;;;;;;15.53;47.24;100276.47;5111915;28;20118;-70
2023/04/03 07:34:19;;;;;;;2.75;1.63;;;;;;;15.54;46.91;100283.56;5111991;28;20064;-69
2023/04/03 07:36:49;;;;;;;3.13;1.80;;;;;;;15.54;47.12;100288.94;5111755;28;20048;-69
2023/04/03 07:39:17;;;;;;;3.00;1.58;;;;;;;15.55;47.15;100282.59;5111927;28;20044;-69
2023/04/03 07:41:45;;;;;;;3.45;1.80;;;;;;;15.55;46.84;100282.59;5114389;28;20130;-69
2023/04/03 07:44:13;;;;;;;2.33;1.60;;;;;;;15.55;47.17;100279.91;5116025;28;20051;-70
2023/04/03 07:46:42;;;;;;;3.95;1.63;;;;;;;15.55;46.96;100285.28;5115899;28;20047;-69
2023/04/03 07:49:10;;;;;;;2.55;1.60;;;;;;;15.56;46.81;100287.00;5116027;28;20059;-69
2023/04/03 07:51:39;;;;;;;3.60;1.80;;;;;;;15.56;46.84;100284.31;5115868;28;20101;-69
2023/04/03 07:54:09;;;;;;;3.35;1.83;;;;;;;15.55;46.99;100287.97;5115895;28;20043;-69
2023/04/03 07:56:37;;;;;;;3.17;1.70;;;;;;;15.57;46.82;100292.25;5115771;28;20047;-68
2023/04/03 07:59:06;;;;;;;3.47;1.70;;;;;;;15.59;47.01;100292.97;5115608;28;20039;-69
2023/04/03 08:01:34;;;;;;;2.45;1.67;;;;;;;15.59;46.88;100294.81;5115819;28;20050;-70
2023/04/03 08:04:03;;;;;;;2.70;1.65;;;;;;;15.57;46.90;100297.63;5115561;28;20487;-69
2023/04/03 08:06:34;;;;;;;2.75;1.60;;;;;;;15.59;46.77;100292.13;5115693;28;20511;-69
2023/04/03 08:09:15;;;;;;;3.92;1.67;;;;;;;15.60;46.48;100293.84;5115663;28;20050;-69
2023/04/03 08:11:44;;;;;;;2.97;1.80;;;;;;;15.61;46.53;100300.94;5115513;28;20044;-69
2023/04/03 08:14:16;;;;;;;3.10;1.70;;;;;;;15.61;46.70;100301.81;5115583;28;20044;-69
2023/04/03 08:16:46;;;;;;;2.72;1.58;;;;;;;15.61;46.93;100300.94;5115436;28;20044;-69
2023/04/03 08:19:15;;;;;;;3.22;1.80;;;;;;;15.63;46.74;100304.34;5115422;28;20039;-69
2023/04/03 08:21:54;;;;;;;2.45;1.52;;;;;;;15.63;46.61;100302.56;5115235;28;20051;-69
2023/04/03 08:24:24;;;;;;;2.75;1.75;;;;;;;15.64;46.42;100301.56;5115212;28;20047;-69
2023/04/03 08:26:52;;;;;;;2.90;1.55;;;;;;;15.66;46.93;100298.75;5115274;28;20114;-69
2023/04/03 08:29:20;;;;;;;2.80;1.45;;;;;;;15.66;46.85;100298.75;5114981;28;20055;-69
2023/04/03 08:31:49;;;;;;;2.38;1.63;;;;;;;15.66;46.90;100290.69;5115232;28;20136;-69
2023/04/03 08:34:18;;;;;;;2.47;1.38;;;;;;;15.68;46.76;100296.78;5115162;28;20043;-69
2023/04/03 08:36:46;;;;;;;3.05;1.70;;;;;;;15.68;46.87;100296.78;5115221;28;20039;-69
2023/04/03 08:39:14;;;;;;;2.47;1.60;;;;;;;15.69;47.05;100298.50;5115227;28;20426;-69
2023/04/03 08:41:46;;;;;;;2.70;1.50;;;;;;;15.70;46.98;100302.91;5114909;28;20051;-69
2023/04/03 08:44:25;;;;;;;2.67;1.75;;;;;;;15.70;46.90;100294.84;5114987;28;20044;-69
2023/04/03 08:47:12;;;;;;;2.75;1.58;;;;;;;15.72;46.89;100299.09;5114935;28;20437;-69
2023/04/03 08:49:46;;;;;;;3.28;1.50;;;;;;;15.74;46.76;100299.00;5114814;28;20043;-70
2023/04/03 08:52:20;;;;;;;3.13;1.75;;;;;;;15.73;46.94;100294.59;5114001;28;20066;-70
2023/04/03 08:54:53;;;;;;;3.63;1.67;;;;;;;15.76;46.84;100294.34;5114820;28;20047;-69
2023/04/03 08:57:30;;;;;;;2.65;1.50;;;;;;;15.78;46.84;100304.97;5114572;28;20139;-69
2023/04/03 09:00:02;;;;;;;2.55;1.50;;;;;;;15.78;46.86;100305.81;5115010;28;20051;-69
2023/04/03 09:02:35;;;;;;;2.60;1.50;;;;;;;15.77;46.84;100301.44;5114750;28;20431;-69
2023/04/03 09:05:09;;;;;;;3.40;1.77;;;;;;;15.80;46.89;100303.88;5114516;28;20067;-69
2023/04/03 09:07:43;;;;;;;2.33;1.75;;;;;;;15.82;46.93;100299.22;5114857;28;20043;-69
2023/04/03 09:10:14;;;;;;;2.30;1.42;;;;;;;15.83;47.00;100300.94;5114492;28;20058;-69
2023/04/03 09:12:49;;;;;;;3.95;1.73;;;;;;;15.83;46.87;100295.56;5114389;28;20088;-69
2023/04/03 09:15:21;;;;;;;2.90;1.50;;;;;;;15.86;47.02;100294.47;5114314;28;20039;-70
2023/04/03 09:18:10;;;;;;;2.33;1.52;;;;;;;15.86;46.93;100300.69;5114201;28;20057;-69
2023/04/03 09:20:44;;;;;;;2.00;1.55;;;;;;;15.87;46.93;100301.53;5114122;28;20047;-69
2023/04/03 09:23:20;;;;;;;3.33;1.50;;;;;;;15.90;46.83;100301.28;5114319;28;20044;-69
2023/04/03 09:25:49;;;;;;;2.08;1.40;;;;;;;15.91;46.85;100313.75;5114077;28;20055;-70
2023/04/03 09:28:19;;;;;;;2.95;1.58;;;;;;;15.92;46.71;100305.56;5113830;28;20109;-69
2023/04/03 09:30:47;;;;;;;2.60;1.40;;;;;;;15.93;46.77;100296.53;5113964;28;20039;-70
2023/04/03 09:33:17;;;;;;;2.55;1.63;;;;;;;15.95;46.74;100310.69;5113981;28;20048;-71
2023/04/03 09:35:47;;;;;;;1.83;1.42;;;;;;;15.95;46.72;100305.31;5113896;28;20062;-70
2023/04/03 09:38:20;;;;;;;2.75;1.67;;;;;;;15.95;46.87;100308.00;5113880;28;20538;-69
2023/04/03 09:40:51;;;;;;;2.28;1.33;;;;;;;15.99;46.71;100301.38;5113755;28;20044;-70
2023/04/03 09:43:31;;;;;;;2.90;1.50;;;;;;;16.01;46.74;100302.09;5113807;28;20050;-70
2023/04/03 09:46:19;;;;;;;2.85;1.38;;;;;;;16.02;46.67;100295.78;5113853;28;20071;-69
2023/04/03 09:48:53;;;;;;;2.17;1.40;;;;;;;16.03;46.55;100294.78;5113686;28;20469;-70
2023/04/03 09:51:35;;;;;;;2.05;1.25;;;;;;;16.06;46.67;100298.19;5113632;28;20102;-69
2023/04/03 09:54:40;;;;;;;2.28;1.40;;;;;;;16.07;46.63;100298.06;5113350;28;20054;-69
2023/04/03 09:57:12;;;;;;;2.25;1.33;;;;;;;16.09;46.66;100295.25;5113172;28;20047;-70
2023/04/03 09:59:48;;;;;;;2.53;1.30;;;;;;;16.08;46.84;100285.47;5113428;28;20126;-70
2023/04/03 10:02:35;;;;;;;1.92;1.30;;;;;;;16.09;46.63;100289.88;5113319;28;20067;-69
2023/04/03 10:05:06;;;;;;;3.00;1.48;;;;;;;16.11;46.52;100299.50;5112182;28;20130;-69
2023/04/03 10:07:37;;;;;;;;;;;;;;;16.12;46.75;100295.88;5113740;28;20484;-68
2023/04/03 10:10:19;;;;;;;2.95;1.52;;;;;;;16.13;46.76;100299.41;5113338;28;20307;-69
2023/04/03 10:12:48;;;;;;;2.55;1.30;;;;;;;16.12;46.82;100300.41;5113005;28;20055;-69
2023/04/03 10:15:19;;;;;;;2.20;1.40;;;;;;;16.11;46.64;100295.97;5112988;28;20043;-70
2023/04/03 10:17:58;;;;;;;2.42;1.30;;;;;;;16.14;46.65;100298.44;5112964;28;20061;-69
2023/04/03 10:20:37;;;;;;;2.75;1.55;;;;;;;16.14;46.56;100298.44;5112901;28;20048;-69
2023/04/03 10:23:19;;;;;;;2.13;1.27;;;;;;;16.14;46.62;100304.66;5112903;28;20480;-69
2023/04/03 10:26:01;;;;;;;2.05;1.30;;;;;;;16.11;46.61;100304.03;5112784;28;20138;-70
2023/04/03 10:28:36;;;;;;;2.40;1.40;;;;;;;16.14;46.58;100298.44;5112722;28;20139;-70
2023/04/03 10:31:15;;;;;;;1.63;1.25;;;;;;;16.15;46.37;100303.69;5112836;28;20071;-69
2023/04/03 10:33:56;;;;;;;2.40;1.30;;;;;;;16.15;46.50;100300.13;5112608;28;20093;-70
2023/04/03 10:36:34;;;;;;;2.20;1.35;;;;;;;16.15;46.34;100300.13;5112538;28;20065;-69
2023/04/03 10:39:13;;;;;;;2.22;1.30;;;;;;;16.17;46.45;100306.25;5112694;28;20046;-69
2023/04/03 10:41:55;;;;;;;3.00;1.42;;;;;;;16.16;46.31;100307.22;5112316;28;20492;-69
2023/04/03 10:44:53;;;;;;;2.60;1.45;;;;;;;16.17;46.44;100298.16;5112685;28;20463;-69
2023/04/03 10:47:25;;;;;;;1.83;1.10;;;;;;;16.17;46.46;100295.47;5112511;28;20039;-68
2023/04/03 10:50:01;;;;;;;2.38;1.33;;;;;;;16.18;46.15;100294.50;5112505;28;20044;-69
2023/04/03 10:52:38;;;;;;;1.83;1.10;;;;;;;16.16;46.27;100297.31;5112262;28;20054;-69
2023/04/03 10:55:25;;;;;;;1.98;1.27;;;;;;;16.18;46.16;100292.66;5112508;28;20048;-69
2023/04/03 10:57:57;;;;;;;2.97;1.45;;;;;;;16.19;46.30;100288.13;5112218;28;20067;-69
2023/04/03 11:00:34;;;;;;;2.10;1.20;;;;;;;16.18;46.36;100287.28;5112266;28;20048;-69
2023/04/03 11:03:14;;;;;;;1.98;1.23;;;;;;;16.20;46.05;100292.53;5112071;28;20115;-69
2023/04/03 11:05:44;;;;;;;1.98;1.23;;;;;;;16.19;46.24;100290.81;5112200;28;20047;-69
2023/04/03 11:08:20;;;;;;;2.40;1.48;;;;;;;16.19;46.10;100296.19;5112613;28;20060;-68
2023/04/03 11:10:51;;;;;;;1.67;1.20;;;;;;;16.17;46.17;100288.25;5111672;28;20048;-69
2023/04/03 11:13:25;;;;;;;1.85;1.20;;;;;;;16.22;46.15;100291.44;5112024;28;20039;-69
2023/04/03 11:15:55;;;;;;;2.65;1.30;;;;;;;16.22;46.25;100288.75;5111507;28;20048;-70
2023/04/03 11:18:33;;;;;;;2.75;1.30;;;;;;;16.23;46.25;100286.91;5111522;28;20454;-68
2023/04/03 11:21:05;;;;;;;1.58;1.10;;;;;;;16.23;46.30;100284.22;5111679;28;20515;-69
2023/04/03 11:23:36;;;;;;;1.80;1.15;;;;;;;16.22;46.08;100282.50;5111870;28;20054;-70
2023/04/03 11:26:18;;;;;;;1.98;1.30;;;;;;;16.25;46.19;100282.25;5111825;28;20488;-69
2023/04/03 11:28:47;;;;;;;2.42;1.25;;;;;;;16.25;46.12;100280.41;5111543;28;20097;-68
2023/04/03 11:31:30;;;;;;;1.98;1.10;;;;;;;16.25;46.05;100269.63;5111783;28;20047;-70
2023/04/03 11:34:14;;;;;;;1.85;1.10;;;;;;;16.26;46.04;100268.66;5111776;28;20050;-68
2023/04/03 11:36:47;;;;;;;2.53;1.20;;;;;;;16.27;46.17;100266.81;5111536;28;20050;-70
2023/04/03 11:39:23;;;;;;;2.13;1.23;;;;;;;16.27;46.23;100264.97;5111631;28;20468;-69
2023/04/03 11:41:53;;;;;;;2.03;1.30;;;;;;;16.29;46.14;100264.84;5111555;28;20446;-69
2023/04/03 11:44:39;;;;;;;2.08;1.08;;;;;;;16.27;46.06;100261.44;5111668;28;20047;-69